Station Historical Data
Daily Summary for December 3, 2017 Units:  Both    English   Metric
« Previous Day
Next Day »
Daily Weekly Monthly Yearly Custom
  High: Low: Average:
Temperature: 66.8 °F /  19.3 °C 44.3 °F /  6.8 °C 54.1 °F /  12.3 °C
Dew Point: 50.6 °F /  10.3 °C 39.5 °F /  4.2 °C 44.8 °F /  7.1 °C
Humidity: 94% 37% 74%
Wind Speed: 4.6mph /  7.4km/h - 0.9mph /  1.4km/h
Wind Gust: 4.6mph /  7.4km/h - -
Wind- - SSE
Pressure: 30.26 in /  1024.6 hPa 30.17 in /  1021.6 hPa -
Precipitation: 0.00 in /  0 mm    
Historical Graphs
 
 
Tabular Data for December 3, 2017
Time Temperature Dew Point Pressure Wind Wind Speed Wind Gust Humidity Rainfall Rate (Hourly) Conditions
00:04 51.7 °F /  10.9 °C 48.9 °F /  9.4 °C 30.20in /  1022.6hPa Calm     90% 0.00in /  0mm FEW
00:09 51.5 °F /  10.8 °C 49.0 °F /  9.4 °C 30.20in /  1022.6hPa Calm     91% 0.00in /  0mm FEW
00:29 51.1 °F /  10.6 °C 48.6 °F /  9.2 °C 30.20in /  1022.6hPa Calm     91% 0.00in /  0mm FEW
00:35 51.0 °F /  10.6 °C 48.5 °F /  9.2 °C 30.19in /  1022.2hPa Calm     91% 0.00in /  0mm FEW
00:40 51.0 °F /  10.6 °C 48.5 °F /  9.2 °C 30.19in /  1022.2hPa Calm     91% 0.00in /  0mm FEW
00:45 51.1 °F /  10.6 °C 48.9 °F /  9.4 °C 30.19in /  1022.2hPa Calm     92% 0.00in /  0mm FEW
00:55 51.1 °F /  10.6 °C 48.9 °F /  9.4 °C 30.19in /  1022.2hPa Calm     92% 0.00in /  0mm FEW
01:00 51.2 °F /  10.7 °C 49.0 °F /  9.4 °C 30.19in /  1022.2hPa Calm     92% 0.00in /  0mm FEW
01:10 51.7 °F /  10.9 °C 49.7 °F /  9.8 °C 30.19in /  1022.2hPa Calm     93% 0.00in /  0mm SCT
01:20 51.6 °F /  10.9 °C 49.4 °F /  9.7 °C 30.19in /  1022.2hPa Calm     92% 0.00in /  0mm SCT
01:30 51.7 °F /  10.9 °C 49.5 °F /  9.7 °C 30.19in /  1022.2hPa Calm     92% 0.00in /  0mm SCT
01:36 52.1 °F /  11.2 °C 50.1 °F /  10.1 °C 30.19in /  1022.2hPa Calm     93% 0.00in /  0mm SCT
01:51 52.9 °F /  11.6 °C 50.6 °F /  10.3 °C 30.19in /  1022.2hPa Calm     92% 0.00in /  0mm SCT
02:06 53.0 °F /  11.7 °C 50.4 °F /  10.2 °C 30.19in /  1022.2hPa Calm     91% 0.00in /  0mm BKN
02:21 52.9 °F /  11.6 °C 50.3 °F /  10.2 °C 30.19in /  1022.2hPa Calm     91% 0.00in /  0mm BKN
02:26 52.9 °F /  11.6 °C 50.3 °F /  10.2 °C 30.19in /  1022.2hPa Calm     91% 0.00in /  0mm BKN
02:31 52.8 °F /  11.6 °C 50.2 °F /  10.1 °C 30.19in /  1022.2hPa Calm     91% 0.00in /  0mm BKN
02:36 52.8 °F /  11.6 °C 50.2 °F /  10.1 °C 30.19in /  1022.2hPa Calm     91% 0.00in /  0mm BKN
02:41 52.8 °F /  11.6 °C 49.9 °F /  9.9 °C 30.20in /  1022.6hPa Calm     90% 0.00in /  0mm BKN
02:52 52.7 °F /  11.5 °C 49.8 °F /  9.9 °C 30.20in /  1022.6hPa Calm     90% 0.00in /  0mm BKN
02:57 52.6 °F /  11.4 °C 49.8 °F /  9.9 °C 30.20in /  1022.6hPa Calm     90% 0.00in /  0mm BKN
03:07 52.1 °F /  11.2 °C 49.3 °F /  9.6 °C 30.20in /  1022.6hPa East 1.2mph /  1.9km/h 1.2mph /  1.9km/h 90% 0.00in /  0mm BKN
03:12 51.9 °F /  11.1 °C 49.4 °F /  9.7 °C 30.20in /  1022.6hPa East 1.2mph /  1.9km/h   91% 0.00in /  0mm BKN
03:17 51.7 °F /  10.9 °C 49.2 °F /  9.6 °C 30.20in /  1022.6hPa East 1.2mph /  1.9km/h   91% 0.00in /  0mm BKN
03:22 51.5 °F /  10.8 °C 49.0 °F /  9.4 °C 30.20in /  1022.6hPa Calm     91% 0.00in /  0mm BKN
03:32 50.8 °F /  10.4 °C 48.0 °F /  8.9 °C 30.20in /  1022.6hPa Calm     90% 0.00in /  0mm BKN
03:37 50.6 °F /  10.3 °C 48.1 °F /  8.9 °C 30.20in /  1022.6hPa Calm     91% 0.00in /  0mm BKN
03:42 50.3 °F /  10.2 °C 47.8 °F /  8.8 °C 30.19in /  1022.2hPa Calm     91% 0.00in /  0mm BKN
03:53 49.6 °F /  9.8 °C 47.1 °F /  8.4 °C 30.19in /  1022.2hPa Calm     91% 0.00in /  0mm BKN
03:58 49.3 °F /  9.6 °C 46.8 °F /  8.2 °C 30.19in /  1022.2hPa Calm     91% 0.00in /  0mm BKN
04:03 49.0 °F /  9.4 °C 46.5 °F /  8.1 °C 30.19in /  1022.2hPa Calm     91% 0.00in /  0mm FEW
04:08 48.8 °F /  9.3 °C 46.3 °F /  7.9 °C 30.19in /  1022.2hPa Calm     91% 0.00in /  0mm FEW
04:10 48.7 °F /  9.3 °C 46.2 °F /  7.9 °C 30.19in /  1022.2hPa Calm     91% 0.00in /  0mm FEW
04:15 48.5 °F /  9.2 °C 46.0 °F /  7.8 °C 30.19in /  1022.2hPa Calm     91% 0.00in /  0mm FEW
04:20 48.3 °F /  9.1 °C 45.8 °F /  7.7 °C 30.19in /  1022.2hPa Calm     91% 0.00in /  0mm FEW
04:25 48.0 °F /  8.9 °C 45.5 °F /  7.5 °C 30.19in /  1022.2hPa Calm     91% 0.00in /  0mm FEW
04:30 47.9 °F /  8.8 °C 45.7 °F /  7.6 °C 30.19in /  1022.2hPa Calm     92% 0.00in /  0mm FEW
04:35 47.7 °F /  8.7 °C 45.5 °F /  7.5 °C 30.19in /  1022.2hPa Calm     92% 0.00in /  0mm FEW
04:40 47.7 °F /  8.7 °C 45.5 °F /  7.5 °C 30.19in /  1022.2hPa Calm     92% 0.00in /  0mm FEW
04:45 47.5 °F /  8.6 °C 45.3 °F /  7.4 °C 30.19in /  1022.2hPa Calm     92% 0.00in /  0mm FEW
04:51 47.3 °F /  8.5 °C 45.1 °F /  7.3 °C 30.20in /  1022.6hPa Calm     92% 0.00in /  0mm FEW
04:56 47.1 °F /  8.4 °C 44.9 °F /  7.2 °C 30.19in /  1022.2hPa Calm     92% 0.00in /  0mm FEW
05:01 46.9 °F /  8.3 °C 44.7 °F /  7.1 °C 30.19in /  1022.2hPa Calm     92% 0.00in /  0mm FEW
05:06 46.8 °F /  8.2 °C 44.6 °F /  7 °C 30.19in /  1022.2hPa Calm     92% 0.00in /  0mm CLR
05:11 46.7 °F /  8.2 °C 44.5 °F /  6.9 °C 30.19in /  1022.2hPa Calm     92% 0.00in /  0mm CLR
05:16 46.5 °F /  8.1 °C 44.3 °F /  6.8 °C 30.19in /  1022.2hPa Calm     92% 0.00in /  0mm CLR
05:21 46.4 °F /  8 °C 44.2 °F /  6.8 °C 30.19in /  1022.2hPa Calm     92% 0.00in /  0mm CLR
05:26 46.3 °F /  7.9 °C 44.1 °F /  6.7 °C 30.19in /  1022.2hPa Calm     92% 0.00in /  0mm CLR
05:31 46.1 °F /  7.8 °C 43.9 °F /  6.6 °C 30.20in /  1022.6hPa Calm     92% 0.00in /  0mm CLR
05:36 46.1 °F /  7.8 °C 43.9 °F /  6.6 °C 30.20in /  1022.6hPa Calm     92% 0.00in /  0mm CLR
05:41 45.9 °F /  7.7 °C 43.7 °F /  6.5 °C 30.19in /  1022.2hPa Calm     92% 0.00in /  0mm CLR
05:46 45.8 °F /  7.7 °C 43.6 °F /  6.4 °C 30.19in /  1022.2hPa Calm     92% 0.00in /  0mm CLR
05:51 45.7 °F /  7.6 °C 43.5 °F /  6.4 °C 30.20in /  1022.6hPa Calm     92% 0.00in /  0mm CLR
05:56 45.7 °F /  7.6 °C 43.5 °F /  6.4 °C 30.20in /  1022.6hPa Calm     92% 0.00in /  0mm CLR
06:01 45.6 °F /  7.6 °C 43.4 °F /  6.3 °C 30.20in /  1022.6hPa Calm     92% 0.00in /  0mm CLR
06:07 45.6 °F /  7.6 °C 43.4 °F /  6.3 °C 30.20in /  1022.6hPa Calm     92% 0.00in /  0mm CLR
06:12 45.4 °F /  7.4 °C 43.2 °F /  6.2 °C 30.20in /  1022.6hPa Calm     92% 0.00in /  0mm CLR
06:17 45.4 °F /  7.4 °C 43.5 °F /  6.4 °C 30.20in /  1022.6hPa Calm     93% 0.00in /  0mm CLR
06:22 45.3 °F /  7.4 °C 43.4 °F /  6.3 °C 30.20in /  1022.6hPa Calm     93% 0.00in /  0mm CLR
06:27 45.2 °F /  7.3 °C 43.3 °F /  6.3 °C 30.20in /  1022.6hPa Calm     93% 0.00in /  0mm CLR
06:32 45.1 °F /  7.3 °C 43.2 °F /  6.2 °C 30.21in /  1022.9hPa Calm     93% 0.00in /  0mm FEW
06:37 45.0 °F /  7.2 °C 43.1 °F /  6.2 °C 30.21in /  1022.9hPa Calm     93% 0.00in /  0mm FEW
06:42 44.9 °F /  7.2 °C 43.0 °F /  6.1 °C 30.21in /  1022.9hPa Calm     93% 0.00in /  0mm SCT
06:47 44.9 °F /  7.2 °C 43.0 °F /  6.1 °C 30.21in /  1022.9hPa Calm     93% 0.00in /  0mm SCT
06:52 44.8 °F /  7.1 °C 42.9 °F /  6.1 °C 30.21in /  1022.9hPa Calm     93% 0.00in /  0mm SCT
06:57 44.8 °F /  7.1 °C 42.9 °F /  6.1 °C 30.22in /  1023.2hPa Calm     93% 0.00in /  0mm SCT
07:02 44.7 °F /  7.1 °C 42.8 °F /  6 °C 30.22in /  1023.2hPa Calm     93% 0.00in /  0mm
07:07 44.7 °F /  7.1 °C 42.8 °F /  6 °C 30.22in /  1023.2hPa Calm     93% 0.00in /  0mm
07:12 44.7 °F /  7.1 °C 42.8 °F /  6 °C 30.22in /  1023.2hPa Calm     93% 0.00in /  0mm
07:18 44.6 °F /  7 °C 42.7 °F /  5.9 °C 30.22in /  1023.2hPa Calm     93% 0.00in /  0mm
07:23 44.6 °F /  7 °C 42.7 °F /  5.9 °C 30.22in /  1023.2hPa Calm     93% 0.00in /  0mm
07:28 44.5 °F /  6.9 °C 42.6 °F /  5.9 °C 30.23in /  1023.6hPa Calm     93% 0.00in /  0mm
07:33 44.5 °F /  6.9 °C 42.6 °F /  5.9 °C 30.23in /  1023.6hPa Calm     93% 0.00in /  0mm
07:38 44.4 °F /  6.9 °C 42.5 °F /  5.8 °C 30.23in /  1023.6hPa Calm     93% 0.00in /  0mm
07:43 44.4 °F /  6.9 °C 42.5 °F /  5.8 °C 30.23in /  1023.6hPa Calm     93% 0.00in /  0mm
07:48 44.3 °F /  6.8 °C 42.4 °F /  5.8 °C 30.23in /  1023.6hPa Calm     93% 0.00in /  0mm
07:53 44.3 °F /  6.8 °C 42.4 °F /  5.8 °C 30.23in /  1023.6hPa Calm     93% 0.00in /  0mm
07:58 44.4 °F /  6.9 °C 42.5 °F /  5.8 °C 30.23in /  1023.6hPa Calm     93% 0.00in /  0mm
08:03 44.4 °F /  6.9 °C 42.5 °F /  5.8 °C 30.23in /  1023.6hPa Calm     93% 0.00in /  0mm
08:08 44.5 °F /  6.9 °C 42.6 °F /  5.9 °C 30.23in /  1023.6hPa Calm     93% 0.00in /  0mm
08:13 44.7 °F /  7.1 °C 42.8 °F /  6 °C 30.23in /  1023.6hPa Calm     93% 0.00in /  0mm
08:19 44.8 °F /  7.1 °C 42.9 °F /  6.1 °C 30.24in /  1023.9hPa Calm     93% 0.00in /  0mm
08:24 45.0 °F /  7.2 °C 43.1 °F /  6.2 °C 30.24in /  1023.9hPa East 1.2mph /  1.9km/h   93% 0.00in /  0mm
08:29 45.3 °F /  7.4 °C 43.4 °F /  6.3 °C 30.24in /  1023.9hPa East 1.2mph /  1.9km/h   93% 0.00in /  0mm
08:34 45.5 °F /  7.5 °C 43.9 °F /  6.6 °C 30.24in /  1023.9hPa East 1.2mph /  1.9km/h   94% 0.00in /  0mm
08:39 45.7 °F /  7.6 °C 44.1 °F /  6.7 °C 30.24in /  1023.9hPa Calm     94% 0.00in /  0mm
08:44 45.8 °F /  7.7 °C 44.2 °F /  6.8 °C 30.24in /  1023.9hPa Calm     94% 0.00in /  0mm
08:49 46.1 °F /  7.8 °C 44.5 °F /  6.9 °C 30.24in /  1023.9hPa Calm     94% 0.00in /  0mm
08:54 46.3 °F /  7.9 °C 44.7 °F /  7.1 °C 30.25in /  1024.3hPa Calm     94% 0.00in /  0mm
08:58 46.5 °F /  8.1 °C 44.9 °F /  7.2 °C 30.25in /  1024.3hPa Calm     94% 0.00in /  0mm
09:03 46.6 °F /  8.1 °C 45.0 °F /  7.2 °C 30.25in /  1024.3hPa Calm     94% 0.00in /  0mm
09:08 46.8 °F /  8.2 °C 45.2 °F /  7.3 °C 30.25in /  1024.3hPa Calm     94% 0.00in /  0mm
09:13 46.9 °F /  8.3 °C 45.3 °F /  7.4 °C 30.25in /  1024.3hPa Calm     94% 0.00in /  0mm
09:18 47.0 °F /  8.3 °C 45.4 °F /  7.4 °C 30.25in /  1024.3hPa East 1.2mph /  1.9km/h   94% 0.00in /  0mm
09:23 47.3 °F /  8.5 °C 45.7 °F /  7.6 °C 30.25in /  1024.3hPa East 1.2mph /  1.9km/h   94% 0.00in /  0mm
09:28 47.6 °F /  8.7 °C 46.0 °F /  7.8 °C 30.25in /  1024.3hPa Calm     94% 0.00in /  0mm
09:33 47.7 °F /  8.7 °C 46.1 °F /  7.8 °C 30.25in /  1024.3hPa Calm     94% 0.00in /  0mm
09:38 48.0 °F /  8.9 °C 46.4 °F /  8 °C 30.25in /  1024.3hPa Calm     94% 0.00in /  0mm
09:43 48.2 °F /  9 °C 46.6 °F /  8.1 °C 30.25in /  1024.3hPa Calm     94% 0.00in /  0mm
09:48 48.7 °F /  9.3 °C 47.1 °F /  8.4 °C 30.25in /  1024.3hPa Calm     94% 0.00in /  0mm
09:53 49.1 °F /  9.5 °C 47.4 °F /  8.6 °C 30.26in /  1024.6hPa ESE 1.2mph /  1.9km/h   94% 0.00in /  0mm
09:59 49.2 °F /  9.6 °C 47.5 °F /  8.6 °C 30.25in /  1024.3hPa East 1.2mph /  1.9km/h 1.2mph /  1.9km/h 94% 0.00in /  0mm
10:04 49.4 °F /  9.7 °C 47.7 °F /  8.7 °C 30.25in /  1024.3hPa East 2.3mph /  3.7km/h   94% 0.00in /  0mm BKN
10:09 49.8 °F /  9.9 °C 48.1 °F /  8.9 °C 30.25in /  1024.3hPa ESE 2.3mph /  3.7km/h   94% 0.00in /  0mm BKN
10:14 50.0 °F /  10 °C 48.1 °F /  8.9 °C 30.25in /  1024.3hPa South 1.2mph /  1.9km/h   93% 0.00in /  0mm BKN
10:19 50.8 °F /  10.4 °C 48.3 °F /  9.1 °C 30.25in /  1024.3hPa South 2.3mph /  3.7km/h   91% 0.00in /  0mm BKN
10:24 51.9 °F /  11.1 °C 49.1 °F /  9.5 °C 30.25in /  1024.3hPa South 2.3mph /  3.7km/h   90% 0.00in /  0mm BKN
10:25 52.1 °F /  11.2 °C 48.6 °F /  9.2 °C 30.25in /  1024.3hPa Calm   1.0mph /  1.6km/h 88% 0.00in /  0mm BKN
10:30 53.4 °F /  11.9 °C 49.0 °F /  9.4 °C 30.25in /  1024.3hPa SSW 1.2mph /  1.9km/h   85% 0.00in /  0mm BKN
10:35 54.2 °F /  12.3 °C 48.5 °F /  9.2 °C 30.25in /  1024.3hPa SE 2.3mph /  3.7km/h 2.3mph /  3.7km/h 81% 0.00in /  0mm BKN
10:40 55.0 °F /  12.8 °C 48.6 °F /  9.2 °C 30.25in /  1024.3hPa ESE 2.3mph /  3.7km/h 2.3mph /  3.7km/h 79% 0.00in /  0mm BKN
10:45 56.0 °F /  13.3 °C 49.2 °F /  9.6 °C 30.25in /  1024.3hPa South 2.3mph /  3.7km/h   78% 0.00in /  0mm BKN
10:50 56.7 °F /  13.7 °C 48.1 °F /  8.9 °C 30.25in /  1024.3hPa South 1.2mph /  1.9km/h   73% 0.00in /  0mm BKN
10:55 57.4 °F /  14.1 °C 48.4 °F /  9.1 °C 30.25in /  1024.3hPa SSW 3.5mph /  5.6km/h 3.5mph /  5.6km/h 72% 0.00in /  0mm BKN
11:00 57.8 °F /  14.3 °C 46.9 °F /  8.3 °C 30.25in /  1024.3hPa SSW 3.5mph /  5.6km/h 3.5mph /  5.6km/h 67% 0.00in /  0mm BKN
11:06 58.3 °F /  14.6 °C 47.0 °F /  8.3 °C 30.25in /  1024.3hPa SSW 3.5mph /  5.6km/h   66% 0.00in /  0mm BKN
11:11 59.2 °F /  15.1 °C 47.4 °F /  8.6 °C 30.25in /  1024.3hPa WSW 2.3mph /  3.7km/h   65% 0.00in /  0mm BKN
11:16 60.1 °F /  15.6 °C 46.6 °F /  8.1 °C 30.25in /  1024.3hPa WSW 2.3mph /  3.7km/h 2.3mph /  3.7km/h 61% 0.00in /  0mm BKN
11:21 60.7 °F /  15.9 °C 46.7 °F /  8.2 °C 30.25in /  1024.3hPa SW 3.5mph /  5.6km/h 3.5mph /  5.6km/h 60% 0.00in /  0mm BKN
11:26 61.1 °F /  16.2 °C 46.2 °F /  7.9 °C 30.24in /  1023.9hPa South 3.5mph /  5.6km/h   58% 0.00in /  0mm BKN
11:31 61.0 °F /  16.1 °C 45.7 °F /  7.6 °C 30.24in /  1023.9hPa SSE 2.3mph /  3.7km/h   57% 0.00in /  0mm BKN
11:36 61.2 °F /  16.2 °C 46.3 °F /  7.9 °C 30.24in /  1023.9hPa SE 2.3mph /  3.7km/h 2.3mph /  3.7km/h 58% 0.00in /  0mm BKN
11:41 61.6 °F /  16.4 °C 44.8 °F /  7.1 °C 30.24in /  1023.9hPa SSE 3.5mph /  5.6km/h 3.5mph /  5.6km/h 54% 0.00in /  0mm BKN
11:46 62.3 °F /  16.8 °C 46.4 °F /  8 °C 30.24in /  1023.9hPa WSW 3.5mph /  5.6km/h 3.5mph /  5.6km/h 56% 0.00in /  0mm BKN
11:51 62.0 °F /  16.7 °C 45.2 °F /  7.3 °C 30.23in /  1023.6hPa SE 2.3mph /  3.7km/h 2.3mph /  3.7km/h 54% 0.00in /  0mm BKN
11:56 62.3 °F /  16.8 °C 45.9 °F /  7.7 °C 30.23in /  1023.6hPa SSW 3.5mph /  5.6km/h 3.5mph /  5.6km/h 55% 0.00in /  0mm BKN
12:01 62.6 °F /  17 °C 45.2 °F /  7.3 °C 30.23in /  1023.6hPa WSW 3.5mph /  5.6km/h 3.5mph /  5.6km/h 53% 0.00in /  0mm BKN
12:07 62.8 °F /  17.1 °C 43.3 °F /  6.3 °C 30.22in /  1023.2hPa NE 2.3mph /  3.7km/h 2.3mph /  3.7km/h 49% 0.00in /  0mm BKN
12:12 62.7 °F /  17.1 °C 44.3 °F /  6.8 °C 30.22in /  1023.2hPa East 2.3mph /  3.7km/h 2.3mph /  3.7km/h 51% 0.00in /  0mm BKN
12:17 63.0 °F /  17.2 °C 44.1 °F /  6.7 °C 30.22in /  1023.2hPa ESE 2.3mph /  3.7km/h 2.3mph /  3.7km/h 50% 0.00in /  0mm BKN
12:22 63.2 °F /  17.3 °C 44.2 °F /  6.8 °C 30.22in /  1023.2hPa East 2.3mph /  3.7km/h 2.3mph /  3.7km/h 50% 0.00in /  0mm BKN
12:27 63.0 °F /  17.2 °C 43.5 °F /  6.4 °C 30.22in /  1023.2hPa East 2.3mph /  3.7km/h   49% 0.00in /  0mm BKN
12:32 63.4 °F /  17.4 °C 42.2 °F /  5.7 °C 30.22in /  1023.2hPa ENE 3.5mph /  5.6km/h   46% 0.00in /  0mm BKN
12:37 64.1 °F /  17.8 °C 42.9 °F /  6.1 °C 30.21in /  1022.9hPa North 3.5mph /  5.6km/h   46% 0.00in /  0mm BKN
12:42 64.3 °F /  17.9 °C 42.5 °F /  5.8 °C 30.21in /  1022.9hPa East 2.3mph /  3.7km/h 2.3mph /  3.7km/h 45% 0.00in /  0mm BKN
12:47 64.6 °F /  18.1 °C 43.9 °F /  6.6 °C 30.21in /  1022.9hPa SW 2.3mph /  3.7km/h   47% 0.00in /  0mm BKN
12:52 64.8 °F /  18.2 °C 42.9 °F /  6.1 °C 30.21in /  1022.9hPa SW 3.5mph /  5.6km/h 3.5mph /  5.6km/h 45% 0.00in /  0mm BKN
13:02 65.6 °F /  18.7 °C 43.7 °F /  6.5 °C 30.21in /  1022.9hPa South 3.5mph /  5.6km/h 3.5mph /  5.6km/h 45% 0.00in /  0mm BKN
13:07 65.8 °F /  18.8 °C 43.3 °F /  6.3 °C 30.21in /  1022.9hPa SSE 2.3mph /  3.7km/h 2.3mph /  3.7km/h 44% 0.00in /  0mm BKN
13:12 65.6 °F /  18.7 °C 43.1 °F /  6.2 °C 30.20in /  1022.6hPa SE 4.6mph /  7.4km/h 4.6mph /  7.4km/h 44% 0.00in /  0mm BKN
13:18 65.6 °F /  18.7 °C 43.1 °F /  6.2 °C 30.20in /  1022.6hPa ESE 4.6mph /  7.4km/h 4.6mph /  7.4km/h 44% 0.00in /  0mm BKN
13:23 65.7 °F /  18.7 °C 43.8 °F /  6.6 °C 30.20in /  1022.6hPa East 3.5mph /  5.6km/h 3.5mph /  5.6km/h 45% 0.00in /  0mm BKN
13:28 65.5 °F /  18.6 °C 43.0 °F /  6.1 °C 30.19in /  1022.2hPa East 4.6mph /  7.4km/h 4.6mph /  7.4km/h 44% 0.00in /  0mm BKN
13:33 65.2 °F /  18.4 °C 42.7 °F /  5.9 °C 30.19in /  1022.2hPa ENE 4.6mph /  7.4km/h 4.6mph /  7.4km/h 44% 0.00in /  0mm BKN
13:38 65.2 °F /  18.4 °C 43.9 °F /  6.6 °C 30.19in /  1022.2hPa SSW 4.6mph /  7.4km/h 4.6mph /  7.4km/h 46% 0.00in /  0mm BKN
13:43 65.2 °F /  18.4 °C 42.7 °F /  5.9 °C 30.19in /  1022.2hPa East 4.6mph /  7.4km/h 4.6mph /  7.4km/h 44% 0.00in /  0mm BKN
13:48 65.2 °F /  18.4 °C 43.3 °F /  6.3 °C 30.19in /  1022.2hPa East 4.6mph /  7.4km/h 4.6mph /  7.4km/h 45% 0.00in /  0mm BKN
13:53 65.4 °F /  18.6 °C 42.3 °F /  5.7 °C 30.19in /  1022.2hPa ESE 3.5mph /  5.6km/h 3.5mph /  5.6km/h 43% 0.00in /  0mm BKN
13:58 65.3 °F /  18.5 °C 43.4 °F /  6.3 °C 30.19in /  1022.2hPa East 3.5mph /  5.6km/h 3.5mph /  5.6km/h 45% 0.00in /  0mm BKN
14:03 65.3 °F /  18.5 °C 42.8 °F /  6 °C 30.19in /  1022.2hPa SSW 2.3mph /  3.7km/h   44% 0.00in /  0mm BKN
14:08 65.5 °F /  18.6 °C 42.4 °F /  5.8 °C 30.19in /  1022.2hPa WSW 2.3mph /  3.7km/h 2.3mph /  3.7km/h 43% 0.00in /  0mm BKN
14:13 65.5 °F /  18.6 °C 41.8 °F /  5.4 °C 30.18in /  1021.9hPa ESE 2.3mph /  3.7km/h   42% 0.00in /  0mm BKN
14:14 65.5 °F /  18.6 °C 41.8 °F /  5.4 °C 30.19in /  1022.2hPa ESE 2.3mph /  3.7km/h   42% 0.00in /  0mm BKN
14:19 65.8 °F /  18.8 °C 42.1 °F /  5.6 °C 30.19in /  1022.2hPa SE 2.3mph /  3.7km/h 2.3mph /  3.7km/h 42% 0.00in /  0mm BKN
14:24 65.9 °F /  18.8 °C 41.5 °F /  5.3 °C 30.18in /  1021.9hPa SE 2.3mph /  3.7km/h 2.3mph /  3.7km/h 41% 0.00in /  0mm BKN
14:29 66.0 °F /  18.9 °C 41.6 °F /  5.3 °C 30.18in /  1021.9hPa ESE 3.5mph /  5.6km/h 3.5mph /  5.6km/h 41% 0.00in /  0mm BKN
14:34 66.0 °F /  18.9 °C 42.2 °F /  5.7 °C 30.18in /  1021.9hPa West 3.5mph /  5.6km/h   42% 0.00in /  0mm BKN
14:39 66.4 °F /  19.1 °C 40.0 °F /  4.4 °C 30.18in /  1021.9hPa West 2.3mph /  3.7km/h 2.3mph /  3.7km/h 38% 0.00in /  0mm BKN
14:44 66.5 °F /  19.2 °C 40.1 °F /  4.5 °C 30.18in /  1021.9hPa East 2.3mph /  3.7km/h 2.3mph /  3.7km/h 38% 0.00in /  0mm BKN
14:49 66.6 °F /  19.2 °C 39.5 °F /  4.2 °C 30.18in /  1021.9hPa SSE 3.5mph /  5.6km/h 3.5mph /  5.6km/h 37% 0.00in /  0mm BKN
14:54 66.7 °F /  19.3 °C 40.9 °F /  4.9 °C 30.18in /  1021.9hPa West 3.5mph /  5.6km/h   39% 0.00in /  0mm BKN
14:59 66.7 °F /  19.3 °C 42.9 °F /  6.1 °C 30.18in /  1021.9hPa WNW 3.5mph /  5.6km/h   42% 0.00in /  0mm BKN
15:03 66.7 °F /  19.3 °C 40.9 °F /  4.9 °C 30.18in /  1021.9hPa WNW 1.2mph /  1.9km/h   39% 0.00in /  0mm BKN
15:08 66.8 °F /  19.3 °C 41.7 °F /  5.4 °C 30.17in /  1021.6hPa NW 1.2mph /  1.9km/h   40% 0.00in /  0mm BKN
15:13 66.8 °F /  19.3 °C 43.6 °F /  6.4 °C 30.17in /  1021.6hPa NNW 1.2mph /  1.9km/h 1.2mph /  1.9km/h 43% 0.00in /  0mm BKN
15:18 66.7 °F /  19.3 °C 43.5 °F /  6.4 °C 30.17in /  1021.6hPa NE 1.2mph /  1.9km/h 1.2mph /  1.9km/h 43% 0.00in /  0mm BKN
15:23 66.7 °F /  19.3 °C 43.5 °F /  6.4 °C 30.17in /  1021.6hPa ENE 2.3mph /  3.7km/h   43% 0.00in /  0mm BKN
15:28 66.7 °F /  19.3 °C 44.1 °F /  6.7 °C 30.17in /  1021.6hPa SE 2.3mph /  3.7km/h   44% 0.00in /  0mm BKN
15:33 66.6 °F /  19.2 °C 43.4 °F /  6.3 °C 30.17in /  1021.6hPa South 3.5mph /  5.6km/h 3.5mph /  5.6km/h 43% 0.00in /  0mm BKN
15:38 66.4 °F /  19.1 °C 43.8 °F /  6.6 °C 30.17in /  1021.6hPa SSW 3.5mph /  5.6km/h   44% 0.00in /  0mm BKN
15:43 66.4 °F /  19.1 °C 44.4 °F /  6.9 °C 30.17in /  1021.6hPa ESE 2.3mph /  3.7km/h   45% 0.00in /  0mm BKN
15:48 66.4 °F /  19.1 °C 43.2 °F /  6.2 °C 30.18in /  1021.9hPa ESE 2.3mph /  3.7km/h   43% 0.00in /  0mm BKN
15:53 66.3 °F /  19.1 °C 44.3 °F /  6.8 °C 30.18in /  1021.9hPa SSE 1.2mph /  1.9km/h 1.2mph /  1.9km/h 45% 0.00in /  0mm BKN
15:58 66.0 °F /  18.9 °C 43.5 °F /  6.4 °C 30.18in /  1021.9hPa South 1.2mph /  1.9km/h   44% 0.00in /  0mm BKN
16:04 65.8 °F /  18.8 °C 45.0 °F /  7.2 °C 30.18in /  1021.9hPa SE 1.2mph /  1.9km/h   47% 0.00in /  0mm BKN
16:09 65.5 °F /  18.6 °C 43.6 °F /  6.4 °C 30.18in /  1021.9hPa SSE 2.3mph /  3.7km/h 2.3mph /  3.7km/h 45% 0.00in /  0mm BKN
16:14 65.5 °F /  18.6 °C 44.2 °F /  6.8 °C 30.18in /  1021.9hPa SSW 2.3mph /  3.7km/h   46% 0.00in /  0mm BKN
16:19 65.4 °F /  18.6 °C 44.1 °F /  6.7 °C 30.18in /  1021.9hPa SSW 1.2mph /  1.9km/h   46% 0.00in /  0mm BKN
16:29 65.1 °F /  18.4 °C 44.4 °F /  6.9 °C 30.18in /  1021.9hPa SW 2.3mph /  3.7km/h 2.3mph /  3.7km/h 47% 0.00in /  0mm BKN
16:34 64.8 °F /  18.2 °C 44.6 °F /  7 °C 30.18in /  1021.9hPa WSW 2.3mph /  3.7km/h   48% 0.00in /  0mm BKN
16:39 64.6 °F /  18.1 °C 43.3 °F /  6.3 °C 30.18in /  1021.9hPa SSW 3.5mph /  5.6km/h   46% 0.00in /  0mm BKN
16:44 64.3 °F /  17.9 °C 43.1 °F /  6.2 °C 30.18in /  1021.9hPa ENE 3.5mph /  5.6km/h   46% 0.00in /  0mm BKN
16:49 64.0 °F /  17.8 °C 43.4 °F /  6.3 °C 30.18in /  1021.9hPa East 3.5mph /  5.6km/h 3.5mph /  5.6km/h 47% 0.00in /  0mm BKN
16:54 63.7 °F /  17.6 °C 43.6 °F /  6.4 °C 30.18in /  1021.9hPa ESE 3.5mph /  5.6km/h   48% 0.00in /  0mm BKN
16:59 63.3 °F /  17.4 °C 43.3 °F /  6.3 °C 30.18in /  1021.9hPa ESE 2.3mph /  3.7km/h   48% 0.00in /  0mm BKN
17:04 63.0 °F /  17.2 °C 43.5 °F /  6.4 °C 30.18in /  1021.9hPa East 1.2mph /  1.9km/h   49% 0.00in /  0mm BKN
17:10 62.5 °F /  16.9 °C 44.6 °F /  7 °C 30.18in /  1021.9hPa East 1.2mph /  1.9km/h   52% 0.00in /  0mm BKN
17:15 61.9 °F /  16.6 °C 45.1 °F /  7.3 °C 30.18in /  1021.9hPa East 1.2mph /  1.9km/h   54% 0.00in /  0mm BKN
17:20 61.3 °F /  16.3 °C 44.5 °F /  6.9 °C 30.19in /  1022.2hPa Calm     54% 0.00in /  0mm BKN
17:25 60.7 °F /  15.9 °C 45.4 °F /  7.4 °C 30.19in /  1022.2hPa East 1.2mph /  1.9km/h   57% 0.00in /  0mm BKN
17:30 60.3 °F /  15.7 °C 45.0 °F /  7.2 °C 30.19in /  1022.2hPa East 1.2mph /  1.9km/h   57% 0.00in /  0mm BKN
17:35 59.9 °F /  15.5 °C 45.1 °F /  7.3 °C 30.19in /  1022.2hPa Calm     58% 0.00in /  0mm BKN
17:40 59.5 °F /  15.3 °C 44.7 °F /  7.1 °C 30.19in /  1022.2hPa Calm     58% 0.00in /  0mm BKN
17:45 59.1 °F /  15.1 °C 44.3 °F /  6.8 °C 30.19in /  1022.2hPa Calm     58% 0.00in /  0mm BKN
17:55 58.6 °F /  14.8 °C 44.3 °F /  6.8 °C 30.19in /  1022.2hPa Calm     59% 0.00in /  0mm BKN
18:00 58.4 °F /  14.7 °C 44.6 °F /  7 °C 30.19in /  1022.2hPa Calm     60% 0.00in /  0mm BKN
18:05 58.0 °F /  14.4 °C 44.6 °F /  7 °C 30.19in /  1022.2hPa Calm     61% 0.00in /  0mm BKN
18:10 57.8 °F /  14.3 °C 44.0 °F /  6.7 °C 30.19in /  1022.2hPa Calm     60% 0.00in /  0mm BKN
18:12 57.8 °F /  14.3 °C 44.9 °F /  7.2 °C 30.19in /  1022.2hPa Calm     62% 0.00in /  0mm BKN
18:17 57.6 °F /  14.2 °C 44.2 °F /  6.8 °C 30.20in /  1022.6hPa East 1.2mph /  1.9km/h   61% 0.00in /  0mm BKN
18:23 57.4 °F /  14.1 °C 44.5 °F /  6.9 °C 30.20in /  1022.6hPa East 1.2mph /  1.9km/h   62% 0.00in /  0mm BKN
18:28 57.3 °F /  14.1 °C 44.0 °F /  6.7 °C 30.20in /  1022.6hPa Calm     61% 0.00in /  0mm BKN
18:33 57.3 °F /  14.1 °C 44.0 °F /  6.7 °C 30.20in /  1022.6hPa Calm     61% 0.00in /  0mm BKN
18:38 57.2 °F /  14 °C 44.3 °F /  6.8 °C 30.20in /  1022.6hPa Calm     62% 0.00in /  0mm BKN
18:43 57.0 °F /  13.9 °C 44.5 °F /  6.9 °C 30.21in /  1022.9hPa Calm     63% 0.00in /  0mm BKN
18:48 56.8 °F /  13.8 °C 44.3 °F /  6.8 °C 30.21in /  1022.9hPa Calm     63% 0.00in /  0mm BKN
18:53 56.6 °F /  13.7 °C 44.1 °F /  6.7 °C 30.21in /  1022.9hPa Calm     63% 0.00in /  0mm BKN
18:58 56.4 °F /  13.6 °C 44.4 °F /  6.9 °C 30.21in /  1022.9hPa East 1.2mph /  1.9km/h   64% 0.00in /  0mm BKN
19:03 56.3 °F /  13.5 °C 44.3 °F /  6.8 °C 30.21in /  1022.9hPa East 1.2mph /  1.9km/h   64% 0.00in /  0mm BKN
19:08 56.1 °F /  13.4 °C 44.5 °F /  6.9 °C 30.21in /  1022.9hPa Calm     65% 0.00in /  0mm BKN
19:13 55.9 °F /  13.3 °C 44.7 °F /  7.1 °C 30.21in /  1022.9hPa Calm     66% 0.00in /  0mm BKN
19:18 55.7 °F /  13.2 °C 44.1 °F /  6.7 °C 30.21in /  1022.9hPa Calm     65% 0.00in /  0mm BKN
19:23 55.6 °F /  13.1 °C 44.8 °F /  7.1 °C 30.21in /  1022.9hPa Calm     67% 0.00in /  0mm BKN
19:29 55.4 °F /  13 °C 44.6 °F /  7 °C 30.21in /  1022.9hPa Calm     67% 0.00in /  0mm BKN
19:34 55.3 °F /  12.9 °C 44.5 °F /  6.9 °C 30.21in /  1022.9hPa Calm     67% 0.00in /  0mm BKN
19:39 55.3 °F /  12.9 °C 44.5 °F /  6.9 °C 30.21in /  1022.9hPa Calm     67% 0.00in /  0mm BKN
19:44 55.2 °F /  12.9 °C 44.8 °F /  7.1 °C 30.21in /  1022.9hPa Calm     68% 0.00in /  0mm BKN
19:49 55.3 °F /  12.9 °C 44.1 °F /  6.7 °C 30.21in /  1022.9hPa Calm     66% 0.00in /  0mm BKN
19:54 55.5 °F /  13.1 °C 44.7 °F /  7.1 °C 30.21in /  1022.9hPa Calm     67% 0.00in /  0mm BKN
19:59 55.1 °F /  12.8 °C 45.1 °F /  7.3 °C 30.21in /  1022.9hPa Calm     69% 0.00in /  0mm BKN
20:04 54.3 °F /  12.4 °C 44.7 °F /  7.1 °C 30.21in /  1022.9hPa Calm     70% 0.00in /  0mm BKN
20:09 53.7 °F /  12.1 °C 44.5 °F /  6.9 °C 30.22in /  1023.2hPa Calm     71% 0.00in /  0mm BKN
20:14 53.0 °F /  11.7 °C 44.6 °F /  7 °C 30.22in /  1023.2hPa Calm     73% 0.00in /  0mm BKN
20:19 52.2 °F /  11.2 °C 44.5 °F /  6.9 °C 30.23in /  1023.6hPa East 1.2mph /  1.9km/h   75% 0.00in /  0mm BKN
20:24 51.8 °F /  11 °C 44.1 °F /  6.7 °C 30.23in /  1023.6hPa East 1.2mph /  1.9km/h   75% 0.00in /  0mm BKN
20:30 51.8 °F /  11 °C 44.5 °F /  6.9 °C 30.23in /  1023.6hPa East 1.2mph /  1.9km/h   76% 0.00in /  0mm BKN
20:35 51.6 °F /  10.9 °C 44.6 °F /  7 °C 30.23in /  1023.6hPa Calm     77% 0.00in /  0mm BKN
20:40 51.5 °F /  10.8 °C 44.5 °F /  6.9 °C 30.23in /  1023.6hPa Calm     77% 0.00in /  0mm BKN
20:45 51.3 °F /  10.7 °C 44.7 °F /  7.1 °C 30.23in /  1023.6hPa Calm     78% 0.00in /  0mm BKN
20:50 51.0 °F /  10.6 °C 44.4 °F /  6.9 °C 30.23in /  1023.6hPa Calm     78% 0.00in /  0mm BKN
20:55 50.9 °F /  10.5 °C 44.3 °F /  6.8 °C 30.23in /  1023.6hPa Calm     78% 0.00in /  0mm BKN
21:00 51.1 °F /  10.6 °C 44.5 °F /  6.9 °C 30.23in /  1023.6hPa Calm     78% 0.00in /  0mm BKN
21:05 51.1 °F /  10.6 °C 44.5 °F /  6.9 °C 30.23in /  1023.6hPa Calm     78% 0.00in /  0mm BKN
21:10 50.9 °F /  10.5 °C 44.3 °F /  6.8 °C 30.23in /  1023.6hPa Calm     78% 0.00in /  0mm BKN
21:15 50.8 °F /  10.4 °C 44.5 °F /  6.9 °C 30.24in /  1023.9hPa Calm     79% 0.00in /  0mm BKN
21:20 50.8 °F /  10.4 °C 44.2 °F /  6.8 °C 30.24in /  1023.9hPa Calm     78% 0.00in /  0mm BKN
21:25 50.6 °F /  10.3 °C 44.3 °F /  6.8 °C 30.24in /  1023.9hPa Calm     79% 0.00in /  0mm BKN
21:30 50.4 °F /  10.2 °C 44.1 °F /  6.7 °C 30.24in /  1023.9hPa Calm     79% 0.00in /  0mm BKN
21:36 50.1 °F /  10.1 °C 44.2 °F /  6.8 °C 30.24in /  1023.9hPa Calm     80% 0.00in /  0mm BKN
21:41 49.7 °F /  9.8 °C 43.8 °F /  6.6 °C 30.24in /  1023.9hPa Calm     80% 0.00in /  0mm BKN
21:46 49.4 °F /  9.7 °C 43.8 °F /  6.6 °C 30.24in /  1023.9hPa Calm     81% 0.00in /  0mm BKN
21:51 49.3 °F /  9.6 °C 44.0 °F /  6.7 °C 30.24in /  1023.9hPa Calm     82% 0.00in /  0mm BKN
21:56 49.0 °F /  9.4 °C 43.7 °F /  6.5 °C 30.24in /  1023.9hPa Calm     82% 0.00in /  0mm BKN
22:01 48.8 °F /  9.3 °C 43.5 °F /  6.4 °C 30.24in /  1023.9hPa Calm     82% 0.00in /  0mm BKN
22:06 48.7 °F /  9.3 °C 43.8 °F /  6.6 °C 30.24in /  1023.9hPa Calm     83% 0.00in /  0mm BKN
22:18 48.9 °F /  9.4 °C 44.3 °F /  6.8 °C 30.24in /  1023.9hPa Calm     84% 0.00in /  0mm BKN
22:22 49.1 °F /  9.5 °C 44.2 °F /  6.8 °C 30.24in /  1023.9hPa Calm     83% 0.00in /  0mm BKN
22:27 49.0 °F /  9.4 °C 44.1 °F /  6.7 °C 30.25in /  1024.3hPa Calm     83% 0.00in /  0mm BKN
22:29 49.0 °F /  9.4 °C 44.1 °F /  6.7 °C 30.25in /  1024.3hPa Calm     83% 0.00in /  0mm BKN
22:31 48.9 °F /  9.4 °C 44.0 °F /  6.7 °C 30.25in /  1024.3hPa Calm     83% 0.00in /  0mm BKN
22:36 48.7 °F /  9.3 °C 43.8 °F /  6.6 °C 30.25in /  1024.3hPa Calm     83% 0.00in /  0mm BKN
22:41 48.4 °F /  9.1 °C 43.5 °F /  6.4 °C 30.25in /  1024.3hPa Calm     83% 0.00in /  0mm BKN
22:46 48.2 °F /  9 °C 43.6 °F /  6.4 °C 30.25in /  1024.3hPa Calm     84% 0.00in /  0mm BKN
22:48 48.1 °F /  8.9 °C 43.5 °F /  6.4 °C 30.25in /  1024.3hPa Calm     84% 0.00in /  0mm BKN
22:53 47.9 °F /  8.8 °C 43.3 °F /  6.3 °C 30.25in /  1024.3hPa Calm     84% 0.00in /  0mm BKN
22:58 47.8 °F /  8.8 °C 43.8 °F /  6.6 °C 30.25in /  1024.3hPa Calm     86% 0.00in /  0mm BKN
23:04 47.8 °F /  8.8 °C 43.8 °F /  6.6 °C 30.25in /  1024.3hPa Calm     86% 0.00in /  0mm BKN
23:09 47.7 °F /  8.7 °C 43.7 °F /  6.5 °C 30.25in /  1024.3hPa Calm     86% 0.00in /  0mm BKN
23:14 47.6 °F /  8.7 °C 43.6 °F /  6.4 °C 30.25in /  1024.3hPa Calm     86% 0.00in /  0mm BKN
23:19 47.4 °F /  8.6 °C 43.7 °F /  6.5 °C 30.25in /  1024.3hPa Calm     87% 0.00in /  0mm BKN
23:24 47.5 °F /  8.6 °C 44.1 °F /  6.7 °C 30.25in /  1024.3hPa Calm     88% 0.00in /  0mm BKN
23:29 47.5 °F /  8.6 °C 44.1 °F /  6.7 °C 30.25in /  1024.3hPa Calm     88% 0.00in /  0mm BKN
23:34 47.5 °F /  8.6 °C 44.1 °F /  6.7 °C 30.25in /  1024.3hPa Calm     88% 0.00in /  0mm BKN
23:39 47.4 °F /  8.6 °C 44.0 °F /  6.7 °C 30.25in /  1024.3hPa Calm     88% 0.00in /  0mm BKN
23:44 47.6 °F /  8.7 °C 44.5 °F /  6.9 °C 30.25in /  1024.3hPa Calm     89% 0.00in /  0mm BKN
23:49 47.9 °F /  8.8 °C 44.8 °F /  7.1 °C 30.25in /  1024.3hPa Calm     89% 0.00in /  0mm BKN
23:54 48.0 °F /  8.9 °C 44.9 °F /  7.2 °C 30.25in /  1024.3hPa Calm     89% 0.00in /  0mm BKN
23:59 47.9 °F /  8.8 °C 44.8 °F /  7.1 °C 30.25in /  1024.3hPa Calm     89% 0.00in /  0mm BKN
Piedmont Bend
Compliments of Weather Underground - 2 mb